° 30
SULAYMANIYAH INTERNATIONAL AIRPORT
  • SulyAir
  • SulyAir
1 1
Arrival

ArrivalsMore >>

Departure

DeparturesMore >>

TAF

TAF ORSU 251100Z 2512/2612 21008KT 7000 FEW045 BKN080
BECMG 2517/2519 29006KT CAVOK
BECMG 2605/2607 16008KT 8000 FEW045 BKN080=

METARs

METAR ORSU 251300Z VRB02KT 8000 NSC 37/09 Q1017=